createdAt,value
2019-01-20T00:01:39.729Z,6.63
2019-01-20T00:04:09.103Z,6.62
2019-01-20T00:06:38.491Z,6.60
2019-01-20T00:09:10.071Z,6.59
2019-01-20T00:11:39.483Z,6.59
2019-01-20T00:14:08.834Z,6.58
2019-01-20T00:16:38.168Z,6.58
2019-01-20T00:19:07.554Z,6.58
2019-01-20T00:21:36.897Z,6.58
2019-01-20T00:24:06.274Z,6.59
2019-01-20T00:26:35.599Z,6.59
2019-01-20T00:29:06.793Z,6.60
2019-01-20T00:31:36.272Z,6.61
2019-01-20T00:34:05.868Z,6.60
2019-01-20T00:36:35.172Z,6.60
2019-01-20T00:39:06.817Z,6.61
2019-01-20T00:41:36.156Z,6.62
2019-01-20T00:44:05.734Z,6.63
2019-01-20T00:46:35.072Z,6.64
2019-01-20T00:49:04.646Z,6.64
2019-01-20T00:51:34.355Z,6.65
2019-01-20T00:54:03.795Z,6.66
2019-01-20T00:56:33.148Z,6.66
2019-01-20T00:59:02.522Z,6.68
2019-01-20T01:01:31.851Z,6.68
2019-01-20T01:04:01.228Z,6.69
2019-01-20T01:06:30.592Z,6.68
2019-01-20T01:08:59.938Z,6.66
2019-01-20T01:11:31.767Z,6.64
2019-01-20T01:14:00.384Z,6.64
2019-01-20T01:16:29.765Z,6.64
2019-01-20T01:18:59.116Z,6.65
2019-01-20T01:21:28.488Z,6.66
2019-01-20T01:23:57.852Z,6.66
2019-01-20T01:26:28.106Z,6.66
2019-01-20T01:28:57.505Z,6.66
2019-01-20T01:31:26.866Z,6.67
2019-01-20T01:33:56.221Z,6.68
2019-01-20T01:36:25.675Z,6.67
2019-01-20T01:38:55.009Z,6.67
2019-01-20T01:41:24.369Z,6.66
2019-01-20T01:43:53.703Z,6.64
2019-01-20T01:46:23.079Z,6.62
2019-01-20T01:48:52.412Z,6.62
2019-01-20T01:51:21.776Z,6.60
2019-01-20T01:53:51.104Z,6.59
2019-01-20T01:56:20.498Z,6.58
2019-01-20T01:58:52.718Z,6.55
2019-01-20T02:01:22.067Z,6.53
2019-01-20T02:03:51.400Z,6.52
2019-01-20T02:06:20.754Z,6.50
2019-01-20T02:08:50.117Z,6.47
2019-01-20T02:11:19.492Z,6.44
2019-01-20T02:13:48.808Z,6.43
2019-01-20T02:16:18.173Z,6.41
2019-01-20T02:18:47.597Z,6.42
2019-01-20T02:21:16.991Z,6.42
2019-01-20T02:23:46.345Z,6.40
2019-01-20T02:26:15.705Z,6.39
2019-01-20T02:28:45.057Z,6.39
2019-01-20T02:31:14.448Z,6.37
2019-01-20T02:33:43.815Z,6.35
2019-01-20T02:36:13.159Z,6.34
2019-01-20T02:38:42.517Z,6.33
2019-01-20T02:41:11.861Z,6.32
2019-01-20T02:43:41.223Z,6.30
2019-01-20T02:46:10.585Z,6.28
2019-01-20T02:48:39.943Z,6.27
2019-01-20T02:51:09.279Z,6.26
2019-01-20T02:53:38.639Z,6.25
2019-01-20T02:56:07.974Z,6.26
2019-01-20T02:58:37.329Z,6.26
2019-01-20T03:01:06.692Z,6.27
2019-01-20T03:03:36.041Z,6.27
2019-01-20T03:06:05.508Z,6.28
2019-01-20T03:08:34.910Z,6.28
2019-01-20T03:11:04.267Z,6.28
2019-01-20T03:13:33.611Z,6.28
2019-01-20T03:16:02.976Z,6.27
2019-01-20T03:18:33.819Z,6.27
2019-01-20T03:21:03.182Z,6.28
2019-01-20T03:23:32.522Z,6.27
2019-01-20T03:26:04.312Z,6.28
2019-01-20T03:28:33.643Z,6.26
2019-01-20T03:31:03.017Z,6.26
2019-01-20T03:33:32.366Z,6.25
2019-01-20T03:36:01.711Z,6.24
2019-01-20T03:38:31.037Z,6.25
2019-01-20T03:41:00.502Z,6.25
2019-01-20T03:43:29.867Z,6.25
2019-01-20T03:45:59.231Z,6.25
2019-01-20T03:48:28.579Z,6.26
2019-01-20T03:50:57.926Z,6.26
2019-01-20T03:53:27.271Z,6.27
2019-01-20T03:55:56.629Z,6.27
2019-01-20T03:58:25.980Z,6.28
2019-01-20T04:00:55.425Z,6.28
2019-01-20T04:03:25.794Z,6.29
2019-01-20T04:05:58.348Z,6.30
2019-01-20T04:08:27.676Z,6.29
2019-01-20T04:10:57.020Z,6.31
2019-01-20T04:13:26.376Z,6.31
2019-01-20T04:15:55.708Z,6.31
2019-01-20T04:18:25.061Z,6.32
2019-01-20T04:20:54.442Z,6.31
2019-01-20T04:23:23.802Z,6.30
2019-01-20T04:25:53.178Z,6.30
2019-01-20T04:28:22.516Z,6.30
2019-01-20T04:30:51.875Z,6.30
2019-01-20T04:33:21.240Z,6.29
2019-01-20T04:35:50.603Z,6.29
2019-01-20T04:38:19.967Z,6.27
2019-01-20T04:40:49.312Z,6.27
2019-01-20T04:43:18.674Z,6.26
2019-01-20T04:45:48.028Z,6.24
2019-01-20T04:48:17.406Z,6.21
2019-01-20T04:50:46.771Z,6.20
2019-01-20T04:53:16.135Z,6.18
2019-01-20T04:55:45.472Z,6.15
2019-01-20T04:58:15.124Z,6.13
2019-01-20T05:00:44.497Z,6.10
2019-01-20T05:03:13.866Z,6.07
2019-01-20T05:05:43.250Z,6.03
2019-01-20T05:08:12.633Z,5.98
2019-01-20T05:10:41.961Z,5.95
2019-01-20T05:13:11.308Z,5.92
2019-01-20T05:15:40.691Z,5.89
2019-01-20T05:18:10.057Z,5.87
2019-01-20T05:20:39.464Z,5.85
2019-01-20T05:23:08.812Z,5.80
2019-01-20T05:25:38.200Z,5.76
2019-01-20T05:28:07.569Z,5.72
2019-01-20T05:30:36.933Z,5.69
2019-01-20T05:33:06.303Z,5.64
2019-01-20T05:35:35.672Z,5.61
2019-01-20T05:38:05.062Z,5.58
2019-01-20T05:40:34.442Z,5.55
2019-01-20T05:43:03.798Z,5.52
2019-01-20T05:45:33.148Z,5.50
2019-01-20T05:48:02.517Z,5.47
2019-01-20T05:50:31.883Z,5.44
2019-01-20T05:53:01.227Z,5.41
2019-01-20T05:55:30.611Z,5.41
2019-01-20T05:57:59.957Z,5.40
2019-01-20T06:00:33.131Z,5.41
2019-01-20T06:03:02.473Z,5.40
2019-01-20T06:05:31.853Z,5.41
2019-01-20T06:08:01.227Z,5.40
2019-01-20T06:10:30.603Z,5.41
2019-01-20T06:12:59.970Z,5.43
2019-01-20T06:15:29.341Z,5.46
2019-01-20T06:17:58.697Z,5.49
2019-01-20T06:20:28.047Z,5.51
2019-01-20T06:22:57.467Z,5.53
2019-01-20T06:25:26.834Z,5.56
2019-01-20T06:27:56.191Z,5.59
2019-01-20T06:30:27.861Z,5.62
2019-01-20T06:32:57.357Z,5.62
2019-01-20T06:35:28.743Z,5.63
2019-01-20T06:37:58.116Z,5.64
2019-01-20T06:40:27.497Z,5.66
2019-01-20T06:43:01.856Z,5.66
2019-01-20T06:45:28.005Z,5.68
2019-01-20T06:47:57.358Z,5.69
2019-01-20T06:50:26.877Z,5.68
2019-01-20T06:52:57.351Z,5.70
2019-01-20T06:55:26.789Z,5.70
2019-01-20T06:57:56.265Z,5.71
2019-01-20T07:00:26.214Z,5.71
2019-01-20T07:02:55.614Z,5.72
2019-01-20T07:05:24.956Z,5.72
2019-01-20T07:07:55.320Z,5.71
2019-01-20T07:10:26.794Z,5.71
2019-01-20T07:12:56.221Z,5.71
2019-01-20T07:15:26.010Z,5.71
2019-01-20T07:17:56.706Z,5.71
2019-01-20T07:20:27.175Z,5.71
2019-01-20T07:22:56.885Z,5.69
2019-01-20T07:25:28.026Z,5.70
2019-01-20T07:27:57.442Z,5.69
2019-01-20T07:30:26.827Z,5.69
2019-01-20T07:32:56.152Z,5.69
2019-01-20T07:35:25.546Z,5.69
2019-01-20T07:37:56.330Z,5.70
2019-01-20T07:40:25.681Z,5.70
2019-01-20T07:42:55.046Z,5.70
2019-01-20T07:45:24.418Z,5.70
2019-01-20T07:47:53.860Z,5.71
2019-01-20T07:50:27.702Z,5.70
2019-01-20T07:52:57.101Z,5.68
2019-01-20T07:55:26.554Z,5.69
2019-01-20T07:57:55.956Z,5.69
2019-01-20T08:00:26.552Z,5.68
2019-01-20T08:02:56.005Z,5.67
2019-01-20T08:05:25.450Z,5.66
2019-01-20T08:07:54.818Z,5.67
2019-01-20T08:10:26.531Z,5.67
2019-01-20T08:12:57.721Z,5.67
2019-01-20T08:15:27.203Z,5.68
2019-01-20T08:17:56.849Z,5.68
2019-01-20T08:20:26.509Z,5.67
2019-01-20T08:22:55.951Z,5.67
2019-01-20T08:25:26.402Z,5.69
2019-01-20T08:27:55.762Z,5.69
2019-01-20T08:30:26.714Z,5.70
2019-01-20T08:32:56.204Z,5.70
2019-01-20T08:35:25.588Z,5.72
2019-01-20T08:37:54.967Z,5.74
2019-01-20T08:40:26.949Z,5.75
2019-01-20T08:42:56.378Z,5.78
2019-01-20T08:46:22.204Z,5.79
2019-01-20T08:48:51.724Z,5.82
2019-01-20T08:51:22.742Z,5.84
2019-01-20T08:53:52.552Z,5.87
2019-01-20T08:56:22.024Z,5.89
2019-01-20T08:58:51.586Z,5.92
2019-01-20T09:01:21.369Z,5.92
2019-01-20T09:03:50.721Z,5.96
2019-01-20T09:06:20.422Z,5.98
2019-01-20T09:08:49.910Z,6.01
2019-01-20T09:11:19.524Z,6.04
2019-01-20T09:13:48.887Z,6.06
2019-01-20T09:16:18.395Z,6.08
2019-01-20T09:18:47.951Z,6.11
2019-01-20T09:21:17.486Z,6.13
2019-01-20T09:23:47.163Z,6.17
2019-01-20T09:26:16.608Z,6.19
2019-01-20T09:28:46.022Z,6.21
2019-01-20T09:31:15.401Z,6.24
2019-01-20T09:33:46.685Z,6.26
2019-01-20T09:36:19.658Z,6.28
2019-01-20T09:38:50.821Z,6.30
2019-01-20T09:41:20.302Z,6.34
2019-01-20T09:43:49.653Z,6.36
2019-01-20T09:46:19.036Z,6.40
2019-01-20T09:48:48.389Z,6.42
2019-01-20T09:51:18.862Z,6.46
2019-01-20T09:53:48.202Z,6.49
2019-01-20T09:56:17.601Z,6.52
2019-01-20T09:58:46.989Z,6.55
2019-01-20T10:01:16.349Z,6.57
2019-01-20T10:03:45.693Z,6.60
2019-01-20T10:06:15.259Z,6.64
2019-01-20T10:08:44.603Z,6.67
2019-01-20T10:11:13.977Z,6.70
2019-01-20T10:13:43.327Z,6.76
2019-01-20T10:16:12.698Z,6.80
2019-01-20T10:18:42.100Z,6.85
2019-01-20T10:21:11.449Z,6.89
2019-01-20T10:23:42.042Z,6.92
2019-01-20T10:26:11.416Z,6.96
2019-01-20T10:28:40.834Z,7.00
2019-01-20T10:31:10.211Z,7.05
2019-01-20T10:33:39.591Z,7.11
2019-01-20T10:36:08.909Z,7.15
2019-01-20T10:38:38.365Z,7.21
2019-01-20T10:41:07.738Z,7.26
2019-01-20T10:43:37.113Z,7.30
2019-01-20T10:46:06.469Z,7.36
2019-01-20T10:48:35.816Z,7.41
2019-01-20T10:51:05.197Z,7.46
2019-01-20T10:53:34.550Z,7.49
2019-01-20T10:56:03.923Z,7.53
2019-01-20T10:58:33.261Z,7.57
2019-01-20T11:01:02.639Z,7.59
2019-01-20T11:03:31.984Z,7.60
2019-01-20T11:06:01.446Z,7.62
2019-01-20T11:08:30.791Z,7.64
2019-01-20T11:11:00.173Z,7.67
2019-01-20T11:13:29.521Z,7.69
2019-01-20T11:15:58.860Z,7.72
2019-01-20T11:18:28.231Z,7.73
2019-01-20T11:20:57.629Z,7.75
2019-01-20T11:23:27.290Z,7.76
2019-01-20T11:25:56.729Z,7.76
2019-01-20T11:28:26.164Z,7.77
2019-01-20T11:30:55.526Z,7.78
2019-01-20T11:33:24.892Z,7.83
2019-01-20T11:35:54.238Z,7.86
2019-01-20T11:38:23.613Z,7.90
2019-01-20T11:40:52.990Z,7.91
2019-01-20T11:43:22.342Z,7.94
2019-01-20T11:45:51.737Z,7.95
2019-01-20T11:48:21.093Z,7.96
2019-01-20T11:50:50.475Z,7.95
2019-01-20T11:53:19.841Z,7.94
2019-01-20T11:55:49.188Z,7.92
2019-01-20T11:58:18.555Z,7.90
2019-01-20T12:00:47.934Z,7.88
2019-01-20T12:03:17.285Z,7.87
2019-01-20T12:05:47.615Z,7.89
2019-01-20T12:08:17.037Z,7.93
2019-01-20T12:10:46.405Z,7.97
2019-01-20T12:13:19.002Z,8.02
2019-01-20T12:15:48.375Z,8.07
2019-01-20T12:18:17.733Z,8.14
2019-01-20T12:20:47.097Z,8.19
2019-01-20T12:23:16.474Z,8.24
2019-01-20T12:25:45.888Z,8.26
2019-01-20T12:28:15.282Z,8.30
2019-01-20T12:30:44.640Z,8.31
2019-01-20T12:33:14.111Z,8.35
2019-01-20T12:35:43.481Z,8.38
2019-01-20T12:38:12.816Z,8.38
2019-01-20T12:40:47.316Z,8.41
2019-01-20T12:43:16.690Z,8.42
2019-01-20T12:45:46.123Z,8.42
2019-01-20T12:48:15.968Z,8.42
2019-01-20T12:50:45.574Z,8.40
2019-01-20T12:53:14.926Z,8.35
2019-01-20T12:55:44.270Z,8.30
2019-01-20T12:58:14.036Z,8.28
2019-01-20T13:00:43.398Z,8.27
2019-01-20T13:03:12.795Z,8.28
2019-01-20T13:05:42.152Z,8.31
2019-01-20T13:08:11.624Z,8.33
2019-01-20T13:10:40.985Z,8.34
2019-01-20T13:13:10.323Z,8.35
2019-01-20T13:15:39.787Z,8.37
2019-01-20T13:18:09.119Z,8.40
2019-01-20T13:20:38.504Z,8.41
2019-01-20T13:23:07.863Z,8.41
2019-01-20T13:25:37.239Z,8.41
2019-01-20T13:28:06.603Z,8.47
2019-01-20T13:30:36.171Z,8.53
2019-01-20T13:33:05.620Z,8.56
2019-01-20T13:35:35.319Z,8.55
2019-01-20T13:38:13.529Z,8.54
2019-01-20T13:40:45.753Z,8.52
2019-01-20T13:43:15.177Z,8.48
2019-01-20T13:45:44.655Z,8.47
2019-01-20T13:48:13.999Z,8.44
2019-01-20T13:50:43.523Z,8.41
2019-01-20T13:53:12.897Z,8.37
2019-01-20T13:55:42.278Z,8.35
2019-01-20T13:58:11.776Z,8.33
2019-01-20T14:00:41.242Z,8.30
2019-01-20T14:03:12.397Z,8.28
2019-01-20T14:05:41.919Z,8.27
2019-01-20T14:08:11.523Z,8.28
2019-01-20T14:10:40.910Z,8.30
2019-01-20T14:13:10.298Z,8.31
2019-01-20T14:15:40.681Z,8.32
2019-01-20T14:18:10.242Z,8.33
2019-01-20T14:20:39.691Z,8.35
2019-01-20T14:23:09.053Z,8.35
2019-01-20T14:25:39.751Z,8.35
2019-01-20T14:28:09.096Z,8.36
2019-01-20T14:30:38.590Z,8.35
2019-01-20T14:33:08.203Z,8.35
2019-01-20T14:35:37.802Z,8.35
2019-01-20T14:38:07.165Z,8.36
2019-01-20T14:40:37.170Z,8.38
2019-01-20T14:43:06.621Z,8.41
2019-01-20T14:45:36.000Z,8.41
2019-01-20T14:48:06.107Z,8.43
2019-01-20T14:50:35.650Z,8.43
2019-01-20T14:53:05.260Z,8.43
2019-01-20T14:55:36.053Z,8.42
2019-01-20T14:58:06.892Z,8.41
2019-01-20T15:00:38.023Z,8.43
2019-01-20T15:03:08.176Z,8.43
2019-01-20T15:05:38.727Z,8.43
2019-01-20T15:08:08.883Z,8.44
2019-01-20T15:10:38.270Z,8.44
2019-01-20T15:13:07.617Z,8.45
2019-01-20T15:15:39.545Z,8.45
2019-01-20T15:18:09.450Z,8.45
2019-01-20T15:20:39.276Z,8.43
2019-01-20T15:23:08.981Z,8.42
2019-01-20T15:25:39.390Z,8.37
2019-01-20T15:28:09.031Z,8.33
2019-01-20T15:30:38.437Z,8.30
2019-01-20T15:33:07.907Z,8.29
2019-01-20T15:35:37.286Z,8.27
2019-01-20T15:38:06.640Z,8.25
2019-01-20T15:40:36.014Z,8.23
2019-01-20T15:43:05.624Z,8.24
2019-01-20T15:45:34.969Z,8.23
2019-01-20T15:48:04.497Z,8.23
2019-01-20T15:50:34.380Z,8.22
2019-01-20T15:53:03.765Z,8.20
2019-01-20T15:55:33.113Z,8.18
2019-01-20T15:58:02.482Z,8.14
2019-01-20T16:00:32.461Z,8.13
2019-01-20T16:03:03.516Z,8.11
2019-01-20T16:05:32.883Z,8.11
2019-01-20T16:08:02.237Z,8.11
2019-01-20T16:10:31.606Z,8.11
2019-01-20T16:13:00.983Z,8.11
2019-01-20T16:15:35.419Z,8.09
2019-01-20T16:18:05.174Z,8.07
2019-01-20T16:20:34.521Z,8.05
2019-01-20T16:23:05.450Z,8.02
2019-01-20T16:25:38.534Z,7.99
2019-01-20T16:28:09.407Z,7.96
2019-01-20T16:30:40.033Z,7.92
2019-01-20T16:33:09.497Z,7.88
2019-01-20T16:35:38.865Z,7.86
2019-01-20T16:38:09.986Z,7.82
2019-01-20T16:40:39.363Z,7.78
2019-01-20T16:43:09.589Z,7.74
2019-01-20T16:45:46.318Z,7.71
2019-01-20T16:48:15.688Z,7.67
2019-01-20T16:50:45.053Z,7.65
2019-01-20T16:53:14.422Z,7.63
2019-01-20T16:55:44.116Z,7.61
2019-01-20T16:58:13.470Z,7.59
2019-01-20T17:00:44.478Z,7.58
2019-01-20T17:03:14.011Z,7.57
2019-01-20T17:05:43.407Z,7.55
2019-01-20T17:08:12.876Z,7.54
2019-01-20T17:10:43.391Z,7.53
2019-01-20T17:13:13.212Z,7.53
2019-01-20T17:15:44.405Z,7.51
2019-01-20T17:18:17.620Z,7.50
2019-01-20T17:20:47.223Z,7.50
2019-01-20T17:23:16.737Z,7.48
2019-01-20T17:25:46.098Z,7.48
2019-01-20T17:28:15.516Z,7.48
2019-01-20T17:30:45.155Z,7.47
2019-01-20T17:33:15.510Z,7.46
2019-01-20T17:35:45.086Z,7.44
2019-01-20T17:38:14.468Z,7.44
2019-01-20T17:40:43.861Z,7.42
2019-01-20T17:43:13.254Z,7.41
2019-01-20T17:45:48.560Z,7.40
2019-01-20T17:48:15.466Z,7.40
2019-01-20T17:50:45.736Z,7.39
2019-01-20T17:53:15.336Z,7.40
2019-01-20T17:55:44.723Z,7.39
2019-01-20T17:58:14.127Z,7.39
2019-01-20T18:01:08.418Z,7.38
2019-01-20T18:03:37.868Z,7.38
2019-01-20T18:06:07.569Z,7.37
2019-01-20T18:08:36.927Z,7.37
2019-01-20T18:11:06.300Z,7.37
2019-01-20T18:13:35.658Z,7.36
2019-01-20T18:16:05.426Z,7.36
2019-01-20T18:18:34.767Z,7.34
2019-01-20T18:21:04.117Z,7.34
2019-01-20T18:23:35.531Z,7.33
2019-01-20T18:26:07.062Z,7.30
2019-01-20T18:28:36.443Z,7.29
2019-01-20T18:31:06.806Z,7.26
2019-01-20T18:33:36.189Z,7.23
2019-01-20T18:36:05.584Z,7.21
2019-01-20T18:38:34.895Z,7.17
2019-01-20T18:41:04.365Z,7.15
2019-01-20T18:43:33.734Z,7.11
2019-01-20T18:46:03.133Z,7.09
2019-01-20T18:48:33.237Z,7.05
2019-01-20T18:51:02.608Z,7.01
2019-01-20T18:53:31.976Z,6.97
2019-01-20T18:56:01.359Z,6.93
2019-01-20T18:58:30.732Z,6.89
2019-01-20T19:01:00.098Z,6.85
2019-01-20T19:03:29.578Z,6.80
2019-01-20T19:05:58.940Z,6.76
2019-01-20T19:08:28.293Z,6.72
2019-01-20T19:10:57.674Z,6.69
2019-01-20T19:13:27.105Z,6.66
2019-01-20T19:15:56.447Z,6.62
2019-01-20T19:18:25.822Z,6.58
2019-01-20T19:20:55.192Z,6.56
2019-01-20T19:23:24.603Z,6.51
2019-01-20T19:25:53.960Z,6.48
2019-01-20T19:28:23.368Z,6.44
2019-01-20T19:30:52.734Z,6.40
2019-01-20T19:33:22.136Z,6.38
2019-01-20T19:35:51.512Z,6.35
2019-01-20T19:38:20.904Z,6.31
2019-01-20T19:40:50.288Z,6.25
2019-01-20T19:43:19.655Z,6.20
2019-01-20T19:45:49.026Z,6.16
2019-01-20T19:48:20.209Z,6.10
2019-01-20T19:50:49.479Z,6.05
2019-01-20T19:53:18.832Z,5.99
2019-01-20T19:55:48.378Z,5.94
2019-01-20T19:58:17.742Z,5.90
2019-01-20T20:00:47.621Z,5.85
2019-01-20T20:03:17.171Z,5.82
2019-01-20T20:05:46.539Z,5.75
2019-01-20T20:08:15.953Z,5.70
2019-01-20T20:10:47.373Z,5.67
2019-01-20T20:13:16.730Z,5.64
2019-01-20T20:15:46.127Z,5.63
2019-01-20T20:18:15.530Z,5.62
2019-01-20T20:20:44.910Z,5.61
2019-01-20T20:23:14.302Z,5.61
2019-01-20T20:25:43.663Z,5.61
2019-01-20T20:28:13.180Z,5.62
2019-01-20T20:30:42.619Z,5.62
2019-01-20T20:33:12.015Z,5.63
2019-01-20T20:35:41.491Z,5.62
2019-01-20T20:38:10.867Z,5.62
2019-01-20T20:40:40.222Z,5.61
2019-01-20T20:43:09.619Z,5.59
2019-01-20T20:45:38.999Z,5.58
2019-01-20T20:48:08.385Z,5.57
2019-01-20T20:50:37.833Z,5.54
2019-01-20T20:53:07.179Z,5.51
2019-01-20T20:55:36.576Z,5.47
2019-01-20T20:58:06.270Z,5.43
2019-01-20T21:00:42.511Z,5.41
2019-01-20T21:03:19.106Z,5.38
2019-01-20T21:05:48.604Z,5.36
2019-01-20T21:08:17.967Z,5.36
2019-01-20T21:10:47.395Z,5.36
2019-01-20T21:13:16.782Z,5.37
2019-01-20T21:15:46.268Z,5.39
2019-01-20T21:18:15.885Z,5.39
2019-01-20T21:20:45.461Z,5.42
2019-01-20T21:23:16.445Z,5.43
2019-01-20T21:25:45.936Z,5.45
2019-01-20T21:28:15.502Z,5.46
2019-01-20T21:30:46.431Z,5.46
2019-01-20T21:33:16.085Z,5.48
2019-01-20T21:35:45.912Z,5.48
2019-01-20T21:38:17.183Z,5.48
2019-01-20T21:40:46.591Z,5.48
2019-01-20T21:43:17.028Z,5.48
2019-01-20T21:45:46.647Z,5.50
2019-01-20T21:48:16.233Z,5.50
2019-01-20T21:50:45.881Z,5.53
2019-01-20T21:53:15.549Z,5.54
2019-01-20T21:55:45.121Z,5.56
2019-01-20T21:58:14.547Z,5.57
2019-01-20T22:00:44.051Z,5.58
2019-01-20T22:03:14.004Z,5.61
2019-01-20T22:05:45.414Z,5.62
2019-01-20T22:08:15.741Z,5.62
2019-01-20T22:10:45.288Z,5.63
2019-01-20T22:13:14.745Z,5.64
2019-01-20T22:15:46.704Z,5.67
2019-01-20T22:18:16.501Z,5.68
2019-01-20T22:20:46.033Z,5.71
2019-01-20T22:23:15.587Z,5.72
2019-01-20T22:25:45.008Z,5.72
2019-01-20T22:28:14.634Z,5.73
2019-01-20T22:30:45.120Z,5.75
2019-01-20T22:33:15.134Z,5.75
2019-01-20T22:35:44.623Z,5.75
2019-01-20T22:38:14.359Z,5.74
2019-01-20T22:40:45.869Z,5.73
2019-01-20T22:43:15.685Z,5.73
2019-01-20T22:45:45.568Z,5.72
2019-01-20T22:48:16.395Z,5.72
2019-01-20T22:50:45.873Z,5.73
2019-01-20T22:53:17.196Z,5.74
2019-01-20T22:55:46.838Z,5.73
2019-01-20T22:58:17.397Z,5.74
2019-01-20T23:00:55.524Z,5.75
2019-01-20T23:03:24.963Z,5.76
2019-01-20T23:05:55.517Z,5.75
2019-01-20T23:08:25.066Z,5.77
2019-01-20T23:10:54.418Z,5.78
2019-01-20T23:13:23.805Z,5.79
2019-01-20T23:15:53.196Z,5.80
2019-01-20T23:18:22.533Z,5.81
2019-01-20T23:20:51.903Z,5.79
2019-01-20T23:23:21.291Z,5.79
2019-01-20T23:25:50.648Z,5.79
2019-01-20T23:28:20.071Z,5.80
2019-01-20T23:30:49.386Z,5.80
2019-01-20T23:33:18.750Z,5.80
2019-01-20T23:35:48.139Z,5.81
2019-01-20T23:38:17.486Z,5.81
2019-01-20T23:40:46.878Z,5.81
2019-01-20T23:43:16.214Z,5.82
2019-01-20T23:45:45.556Z,5.82
2019-01-20T23:48:14.941Z,5.83
2019-01-20T23:50:44.286Z,5.83
2019-01-20T23:53:13.661Z,5.83
2019-01-20T23:55:42.995Z,5.83
2019-01-20T23:58:12.373Z,5.83
